KGCK/GCK METAR and TAF weather

Enter ICAO airport designator
Station Type Date Time Source
KGCK METAR 2021/07/29 17:54 UTC NOAA

KGCK 291754Z 19012G20KT 10SM CLR 34/16 A3013 RMK AO2 SLP163 T03390161 10344 20200 58004


Station Type Date Time Source
KGCK Decoded METAR 2021/07/29 17:54 UTC NOAA

GARDEN CITY REGIONAL AIRPORT, KS, United States (KGCK) 37-55N 100-43W 877M
Jul 29, 2021 - 01:54 PM EDT / 2021.07.29 1754 UTC
Wind: from the S (190 degrees) at 14 MPH (12 KT) gusting to 23 MPH (20 KT):0
Visibility: 10 mile(s):0
Sky conditions: clear
Temperature: 93.0 F (33.9 C)
Dew Point: 61.0 F (16.1 C)
Relative Humidity: 34%
Pressure (altimeter): 30.13 in. Hg (1020 hPa)
Pressure tendency: 0.01 inches (0.4 hPa) lower than three hours ago
ob: KGCK 291754Z 19012G20KT 10SM CLR 34/16 A3013 RMK AO2 SLP163 T03390161 10344 20200 58004
cycle: 18

Station Type Date Time Source
KGCK TAF 2021/07/29 18:22 UTC NOAA

TAF KGCK 291720Z 2918/3018 18010G17KT P6SM SKC
FM300700 18008KT P6SM SKC

Example: see airport list